Time;durP1;ratioP1;P1;durP2;ratioP2;P2;SDS_P1;SDS_P2;PMS_P1;PMS_P2;Temp;Humidity;BMP_temperature;BMP_pressure;BME280_temperature;BME280_humidity;BME280_pressure;Samples;Min_cycle;Max_cycle;Signal;HPM_P1;HPM_P2
2022/08/03 00:01:00;;;;;;;2.47;1.80;;;26.40;62.20;;;;;;4995865;28;20032;-60
2022/08/03 00:03:26;;;;;;;7.47;1.70;;;26.30;62.30;;;;;;4993420;28;20038;-60
2022/08/03 00:05:51;;;;;;;2.60;1.90;;;26.30;62.40;;;;;;4997286;28;20030;-60
2022/08/03 00:08:17;;;;;;;3.38;1.85;;;26.20;62.60;;;;;;4994885;28;20064;-60
2022/08/03 00:10:42;;;;;;;3.78;1.80;;;26.20;62.70;;;;;;4995539;28;20030;-60
2022/08/03 00:13:08;;;;;;;10.93;1.50;;;26.20;62.80;;;;;;4996683;28;20037;-60
2022/08/03 00:15:34;;;;;;;2.03;1.63;;;26.20;62.90;;;;;;4997291;28;20095;-60
2022/08/03 00:17:59;;;;;;;4.50;1.60;;;26.10;63.00;;;;;;4995935;28;20050;-60
2022/08/03 00:20:25;;;;;;;2.78;1.70;;;26.10;63.20;;;;;;4996142;28;20037;-60
2022/08/03 00:22:50;;;;;;;2.35;1.77;;;26.10;63.30;;;;;;4980651;28;20038;-61
2022/08/03 00:25:16;;;;;;;2.70;1.80;;;26.00;63.30;;;;;;4997591;28;20065;-60
2022/08/03 00:27:41;;;;;;;4.32;1.75;;;26.00;63.50;;;;;;4994834;28;20026;-60
2022/08/03 00:30:07;;;;;;;4.82;1.67;;;26.00;63.60;;;;;;4999471;28;20022;-60
2022/08/03 00:32:33;;;;;;;4.70;1.85;;;25.90;63.60;;;;;;5012956;28;20146;-60
2022/08/03 00:34:58;;;;;;;3.83;1.77;;;25.90;63.70;;;;;;5001138;28;20049;-60
2022/08/03 00:37:24;;;;;;;2.58;1.73;;;25.90;63.70;;;;;;4998712;28;20084;-60
2022/08/03 00:39:49;;;;;;;5.38;2.10;;;25.90;63.90;;;;;;5001074;28;20413;-60
2022/08/03 00:42:15;;;;;;;3.97;1.77;;;25.80;64.10;;;;;;5001831;28;20049;-60
2022/08/03 00:44:41;;;;;;;3.25;1.70;;;25.80;64.20;;;;;;4999945;28;20034;-60
2022/08/03 00:47:07;;;;;;;4.30;1.83;;;25.70;64.10;;;;;;4997657;28;20034;-60
2022/08/03 00:49:32;;;;;;;2.20;1.55;;;25.70;64.30;;;;;;4993808;28;20036;-60
2022/08/03 00:51:59;;;;;;;5.65;1.85;;;25.70;64.30;;;;;;5000171;28;20091;-60
2022/08/03 00:54:24;;;;;;;4.90;2.00;;;25.70;64.40;;;;;;4998727;28;20026;-60
2022/08/03 00:56:50;;;;;;;2.47;1.88;;;25.70;64.40;;;;;;5001323;28;20072;-60
2022/08/03 00:59:15;;;;;;;2.47;1.70;;;25.70;64.50;;;;;;5001980;28;20381;-60
2022/08/03 01:01:41;;;;;;;2.97;2.05;;;25.70;64.60;;;;;;4999906;28;20029;-60
2022/08/03 01:04:06;;;;;;;7.22;2.00;;;25.60;64.70;;;;;;4992471;28;20494;-60
2022/08/03 01:06:40;;;;;;;3.70;2.03;;;25.60;64.90;;;;;;5000432;28;20037;-60
2022/08/03 01:09:16;;;;;;;6.75;1.70;;;25.60;65.10;;;;;;4998158;28;20022;-60
2022/08/03 01:12:06;;;;;;;2.58;1.90;;;25.60;65.10;;;;;;5000853;28;20026;-60
2022/08/03 01:14:37;;;;;;;19.13;3.53;;;25.50;65.10;;;;;;4984480;28;20050;-60
2022/08/03 01:17:11;;;;;;;19.83;3.15;;;25.50;65.30;;;;;;5000867;28;20033;-60
2022/08/03 01:19:55;;;;;;;9.65;2.80;;;25.50;65.30;;;;;;4996355;28;20033;-59
2022/08/03 01:22:58;;;;;;;11.27;3.40;;;25.50;65.30;;;;;;4982639;28;20026;-60
2022/08/03 01:25:39;;;;;;;16.58;3.03;;;25.40;65.30;;;;;;4998510;28;20674;-60
2022/08/03 01:28:23;;;;;;;12.68;2.78;;;25.40;65.50;;;;;;4998590;28;20548;-60
2022/08/03 01:30:49;;;;;;;8.90;2.80;;;25.40;65.70;;;;;;5000130;28;20026;-60
2022/08/03 01:33:18;;;;;;;13.88;3.20;;;25.30;65.80;;;;;;5013369;28;20099;-60
2022/08/03 01:35:57;;;;;;;14.65;3.17;;;25.40;65.90;;;;;;4979614;28;20040;-60
2022/08/03 01:38:24;;;;;;;15.45;3.72;;;25.30;65.90;;;;;;4999364;28;20034;-60
2022/08/03 01:40:53;;;;;;;14.68;3.20;;;25.30;66.00;;;;;;4981221;28;20116;-60
2022/08/03 01:43:19;;;;;;;11.40;2.95;;;25.10;65.90;;;;;;4996085;28;20030;-60
2022/08/03 01:45:44;;;;;;;15.32;3.20;;;25.30;66.20;;;;;;4982145;28;20103;-60
2022/08/03 01:48:11;;;;;;;15.15;3.22;;;25.20;66.30;;;;;;4979520;28;20337;-60
2022/08/03 01:50:36;;;;;;;15.35;3.10;;;25.20;66.40;;;;;;4998051;28;20033;-61
2022/08/03 01:53:02;;;;;;;9.32;2.92;;;25.20;66.40;;;;;;4983346;28;20602;-60
2022/08/03 01:55:28;;;;;;;13.18;3.03;;;25.20;66.50;;;;;;4998838;28;20168;-61
2022/08/03 01:57:54;;;;;;;6.80;2.83;;;25.20;66.60;;;;;;4995408;28;20048;-60
2022/08/03 02:00:20;;;;;;;17.02;2.97;;;25.10;66.80;;;;;;5013418;28;20137;-61
2022/08/03 02:02:47;;;;;;;15.35;3.05;;;25.10;67.00;;;;;;4998831;28;20200;-60
2022/08/03 02:05:12;;;;;;;7.63;2.75;;;25.10;67.10;;;;;;4996433;28;20735;-61
2022/08/03 02:07:39;;;;;;;14.52;3.15;;;25.10;67.10;;;;;;4991028;28;20117;-60
2022/08/03 02:10:05;;;;;;;11.32;2.80;;;25.10;67.20;;;;;;5000541;28;20046;-61
2022/08/03 02:12:31;;;;;;;10.13;2.47;;;25.00;67.30;;;;;;4997761;28;20029;-60
2022/08/03 02:14:56;;;;;;;8.07;2.83;;;25.00;67.40;;;;;;4982787;28;20036;-60
2022/08/03 02:17:23;;;;;;;12.05;2.95;;;24.90;67.60;;;;;;4996372;28;20021;-60
2022/08/03 02:19:48;;;;;;;12.23;3.20;;;25.00;67.80;;;;;;4998695;28;20474;-60
2022/08/03 02:22:14;;;;;;;14.18;2.50;;;24.90;67.60;;;;;;4980468;28;20040;-61
2022/08/03 02:24:39;;;;;;;5.15;2.60;;;24.90;67.80;;;;;;4996424;28;20053;-61
2022/08/03 02:27:09;;;;;;;7.13;2.50;;;24.90;67.80;;;;;;4997753;28;20022;-60
2022/08/03 02:29:35;;;;;;;9.18;2.28;;;24.90;67.90;;;;;;4998988;28;20033;-61
2022/08/03 02:32:03;;;;;;;7.93;3.10;;;24.80;67.90;;;;;;4982222;28;20338;-60
2022/08/03 02:34:28;;;;;;;10.38;2.70;;;24.80;68.00;;;;;;4997478;28;20030;-60
2022/08/03 02:36:54;;;;;;;4.70;2.42;;;24.80;68.10;;;;;;4993045;28;20358;-61
2022/08/03 02:39:20;;;;;;;6.15;2.42;;;24.80;68.10;;;;;;4997068;28;20535;-60
2022/08/03 02:41:51;;;;;;;7.82;2.05;;;24.80;68.10;;;;;;4981868;28;20049;-60
2022/08/03 02:44:21;;;;;;;5.03;2.38;;;24.80;68.30;;;;;;4995176;28;20022;-60
2022/08/03 02:46:48;;;;;;;5.68;2.38;;;24.80;68.30;;;;;;4996999;28;20145;-61
2022/08/03 02:49:14;;;;;;;5.90;2.40;;;24.80;68.30;;;;;;4981006;28;20148;-61
2022/08/03 02:51:40;;;;;;;5.47;2.20;;;24.80;68.40;;;;;;4981566;28;20021;-61
2022/08/03 02:54:07;;;;;;;6.03;2.28;;;24.70;68.60;;;;;;4998498;28;20600;-60
2022/08/03 02:56:32;;;;;;;6.63;2.60;;;24.70;68.60;;;;;;4981373;28;20033;-61
2022/08/03 02:58:58;;;;;;;9.15;2.25;;;24.70;68.70;;;;;;4981403;28;20383;-60
2022/08/03 03:01:24;;;;;;;5.43;1.98;;;24.60;68.90;;;;;;4980952;28;20494;-60
2022/08/03 03:03:50;;;;;;;3.25;2.03;;;24.60;69.10;;;;;;4992690;28;20389;-61
2022/08/03 03:06:16;;;;;;;5.63;2.20;;;24.60;69.30;;;;;;4996308;28;20022;-60
2022/08/03 03:08:42;;;;;;;6.38;2.47;;;24.50;69.30;;;;;;4995592;28;20437;-60
2022/08/03 03:11:07;;;;;;;2.50;2.10;;;24.50;69.40;;;;;;4998537;28;20509;-61
2022/08/03 03:13:33;;;;;;;2.83;2.25;;;24.50;69.60;;;;;;4997446;28;20041;-61
2022/08/03 03:16:00;;;;;;;3.80;2.30;;;24.50;69.60;;;;;;4997278;28;20037;-60
2022/08/03 03:18:27;;;;;;;3.15;1.90;;;24.50;69.50;;;;;;4994232;28;20052;-60
2022/08/03 03:20:53;;;;;;;4.43;2.22;;;24.50;69.60;;;;;;4995971;28;20560;-60
2022/08/03 03:23:20;;;;;;;3.08;2.30;;;24.40;69.60;;;;;;4996780;28;20040;-60
2022/08/03 03:25:45;;;;;;;2.20;1.98;;;24.40;69.70;;;;;;4996614;28;20029;-61
2022/08/03 03:28:11;;;;;;;6.03;2.33;;;24.40;69.90;;;;;;5015241;28;20046;-60
2022/08/03 03:30:36;;;;;;;3.58;2.20;;;24.40;70.00;;;;;;4981601;28;20022;-61
2022/08/03 03:33:02;;;;;;;2.53;1.70;;;24.40;70.10;;;;;;4978712;28;20022;-60
2022/08/03 03:35:27;;;;;;;2.92;2.05;;;24.30;70.10;;;;;;4999370;28;20066;-60
2022/08/03 03:37:53;;;;;;;2.50;2.20;;;24.30;70.40;;;;;;4997656;28;20084;-60
2022/08/03 03:40:18;;;;;;;2.50;2.17;;;24.30;70.40;;;;;;4980034;28;20061;-60
2022/08/03 03:42:44;;;;;;;3.85;2.28;;;24.30;70.50;;;;;;4997760;28;20869;-60
2022/08/03 03:45:10;;;;;;;4.38;2.53;;;24.30;70.70;;;;;;4993570;28;20062;-60
2022/08/03 03:47:35;;;;;;;2.97;2.25;;;24.20;70.70;;;;;;4993512;28;20210;-60
2022/08/03 03:50:05;;;;;;;2.97;2.17;;;24.30;70.90;;;;;;4996599;28;20553;-61
2022/08/03 03:52:31;;;;;;;5.90;2.17;;;24.20;70.90;;;;;;4996960;28;20069;-61
2022/08/03 03:54:56;;;;;;;3.88;2.00;;;24.20;71.00;;;;;;4996102;28;20430;-60
2022/08/03 03:57:22;;;;;;;1.92;1.70;;;24.20;71.10;;;;;;4996316;28;20516;-60
2022/08/03 03:59:47;;;;;;;3.15;2.50;;;24.10;71.80;;;;;;4998290;28;20065;-60
2022/08/03 04:02:13;;;;;;;3.50;2.53;;;24.10;71.30;;;;;;4998549;28;20033;-60
2022/08/03 04:13:12;;;;;;;6.38;2.20;;;24.00;72.00;;;;;;4999932;28;20441;-61
2022/08/03 04:15:38;;;;;;;3.25;2.40;;;24.00;72.00;;;;;;4987015;28;20545;-61
2022/08/03 04:18:04;;;;;;;5.07;2.65;;;24.00;72.10;;;;;;4997917;28;20057;-61
2022/08/03 04:20:30;;;;;;;3.50;2.33;;;23.90;72.20;;;;;;4997895;28;20540;-60
2022/08/03 04:22:56;;;;;;;3.45;2.40;;;23.90;72.40;;;;;;5014930;28;20607;-61
2022/08/03 04:25:22;;;;;;;2.55;2.30;;;23.90;72.50;;;;;;4998078;28;20042;-61
2022/08/03 04:27:48;;;;;;;3.35;2.40;;;23.90;72.70;;;;;;5014072;28;20033;-61
2022/08/03 04:30:13;;;;;;;2.65;2.45;;;23.90;72.80;;;;;;5000840;28;20026;-60
2022/08/03 04:32:39;;;;;;;4.47;2.38;;;23.90;73.10;;;;;;5000334;28;20819;-60
2022/08/03 04:35:05;;;;;;;4.47;2.60;;;23.80;73.60;;;;;;4978748;28;20730;-61
2022/08/03 04:37:41;;;;;;;4.15;2.40;;;23.80;73.10;;;;;;4995293;28;20029;-61
2022/08/03 04:40:13;;;;;;;2.50;1.98;;;23.80;73.10;;;;;;4998207;28;20053;-60
2022/08/03 04:42:38;;;;;;;3.35;2.45;;;23.80;73.10;;;;;;5000044;28;20046;-62
2022/08/03 04:45:04;;;;;;;3.30;2.50;;;23.80;73.10;;;;;;4999208;28;20096;-61
2022/08/03 04:47:31;;;;;;;2.63;2.42;;;23.80;73.20;;;;;;5014513;28;20050;-61
2022/08/03 04:49:56;;;;;;;4.10;2.38;;;23.80;73.20;;;;;;4996310;28;20033;-61
2022/08/03 04:52:22;;;;;;;2.83;2.42;;;23.80;73.50;;;;;;4996686;28;20042;-60
2022/08/03 04:54:48;;;;;;;3.05;2.63;;;23.80;73.20;;;;;;5015348;28;20379;-61
2022/08/03 04:57:13;;;;;;;3.20;2.33;;;23.70;73.20;;;;;;5000330;28;20030;-60
2022/08/03 04:59:39;;;;;;;2.80;2.03;;;23.70;73.40;;;;;;5000031;28;20045;-60
2022/08/03 05:02:05;;;;;;;2.80;2.20;;;23.70;73.40;;;;;;4981643;28;20048;-61
2022/08/03 05:04:31;;;;;;;3.97;2.60;;;23.70;73.60;;;;;;4998318;28;20026;-60
2022/08/03 05:06:57;;;;;;;6.43;2.20;;;23.70;73.60;;;;;;4997813;28;20052;-61
2022/08/03 05:09:22;;;;;;;4.07;2.40;;;23.70;73.70;;;;;;4996884;28;20142;-61
2022/08/03 05:11:48;;;;;;;3.83;2.50;;;23.60;73.70;;;;;;5000141;28;20026;-60
2022/08/03 05:14:13;;;;;;;2.95;2.20;;;23.60;73.80;;;;;;4998049;28;20064;-60
2022/08/03 05:16:39;;;;;;;2.97;2.60;;;23.60;73.70;;;;;;4999982;28;20393;-60
2022/08/03 05:19:04;;;;;;;2.85;2.30;;;23.60;73.80;;;;;;4996147;28;20057;-61
2022/08/03 05:21:30;;;;;;;6.78;2.53;;;23.60;74.40;;;;;;5000639;28;20066;-61
2022/08/03 05:23:55;;;;;;;5.55;2.45;;;23.60;74.00;;;;;;5000652;28;20518;-61
2022/08/03 05:26:21;;;;;;;2.80;2.38;;;23.60;74.00;;;;;;5001546;28;20489;-61
2022/08/03 05:28:46;;;;;;;4.07;2.35;;;23.60;74.00;;;;;;4998705;28;20490;-61
2022/08/03 05:31:12;;;;;;;2.47;2.20;;;23.60;74.00;;;;;;5000016;28;20030;-62
2022/08/03 05:33:38;;;;;;;9.95;3.17;;;23.60;74.00;;;;;;5000479;28;20030;-62
2022/08/03 05:36:04;;;;;;;5.72;2.30;;;23.60;74.10;;;;;;5001999;28;20309;-60
2022/08/03 05:38:30;;;;;;;4.38;2.60;;;23.60;74.00;;;;;;4981024;28;20069;-62
2022/08/03 05:40:56;;;;;;;4.57;1.90;;;23.60;74.00;;;;;;4997592;28;20117;-59
2022/08/03 05:43:22;;;;;;;3.72;2.35;;;23.60;74.00;;;;;;5000497;28;21203;-62
2022/08/03 05:45:47;;;;;;;5.22;2.40;;;23.60;74.00;;;;;;4997830;28;20062;-61
2022/08/03 05:48:13;;;;;;;5.80;2.53;;;23.60;74.00;;;;;;4996350;28;20027;-61
2022/08/03 05:50:38;;;;;;;2.88;2.40;;;23.60;74.00;;;;;;4999401;28;20049;-61
2022/08/03 05:53:04;;;;;;;4.60;2.50;;;23.60;74.00;;;;;;4982367;28;20061;-60
2022/08/03 05:55:29;;;;;;;5.25;2.35;;;23.60;74.00;;;;;;5000757;28;20029;-62
2022/08/03 05:57:55;;;;;;;3.15;2.22;;;23.60;74.10;;;;;;4998602;28;20544;-61
2022/08/03 06:00:20;;;;;;;3.60;2.30;;;23.60;74.10;;;;;;4998652;28;20034;-61
2022/08/03 06:02:46;;;;;;;4.45;2.85;;;23.60;74.20;;;;;;4996069;28;20022;-61
2022/08/03 06:05:11;;;;;;;4.20;2.63;;;23.50;74.20;;;;;;4997642;28;20048;-61
2022/08/03 06:07:37;;;;;;;3.05;2.20;;;23.50;75.10;;;;;;5013300;28;20101;-61
2022/08/03 06:10:03;;;;;;;7.28;2.53;;;23.50;75.40;;;;;;4997481;28;20064;-61
2022/08/03 06:12:29;;;;;;;3.47;2.45;;;23.40;75.60;;;;;;4997457;28;20413;-61
2022/08/03 06:14:55;;;;;;;5.95;3.20;;;23.40;76.00;;;;;;4999690;28;20032;-61
2022/08/03 06:17:20;;;;;;;4.38;2.80;;;23.30;76.90;;;;;;4999843;28;20034;-61
2022/08/03 06:19:46;;;;;;;5.38;2.88;;;23.30;77.20;;;;;;4997045;28;20037;-62
2022/08/03 06:22:11;;;;;;;4.20;2.90;;;23.30;77.50;;;;;;4997629;28;20064;-61
2022/08/03 06:24:37;;;;;;;5.68;2.97;;;23.20;77.80;;;;;;4996546;28;20033;-61
2022/08/03 06:27:02;;;;;;;4.70;3.17;;;23.20;78.00;;;;;;4995204;28;20449;-62
2022/08/03 06:29:28;;;;;;;6.15;2.92;;;23.20;78.50;;;;;;4997284;28;20042;-61
2022/08/03 06:31:53;;;;;;;7.80;3.28;;;23.20;78.80;;;;;;4999063;28;20021;-61
2022/08/03 06:34:19;;;;;;;9.25;2.88;;;23.20;78.90;;;;;;4997210;28;20034;-62
2022/08/03 06:36:47;;;;;;;4.43;3.40;;;23.20;79.00;;;;;;4998744;28;20064;-61
2022/08/03 06:39:12;;;;;;;9.90;3.40;;;23.20;79.20;;;;;;5000019;28;20029;-61
2022/08/03 06:41:38;;;;;;;6.55;3.28;;;23.20;79.30;;;;;;4997047;28;20108;-61
2022/08/03 06:44:04;;;;;;;7.43;3.55;;;23.20;79.50;;;;;;4997812;28;20120;-61
2022/08/03 06:46:29;;;;;;;8.38;3.78;;;23.20;79.50;;;;;;4996949;28;20050;-61
2022/08/03 06:48:55;;;;;;;7.20;2.97;;;23.20;79.70;;;;;;5012731;28;20425;-61
2022/08/03 06:51:22;;;;;;;4.90;3.38;;;23.20;80.00;;;;;;4995628;28;20117;-61
2022/08/03 06:53:48;;;;;;;5.45;3.65;;;23.20;80.20;;;;;;4994914;28;20026;-65
2022/08/03 06:56:13;;;;;;;7.80;3.42;;;23.30;80.00;;;;;;4997077;28;20475;-61
2022/08/03 06:58:38;;;;;;;7.93;3.65;;;23.30;80.10;;;;;;5011469;28;20049;-61
2022/08/03 07:01:04;;;;;;;8.25;3.63;;;23.30;79.80;;;;;;4998587;28;20708;-61
2022/08/03 07:03:29;;;;;;;10.50;3.85;;;23.30;80.20;;;;;;4998134;28;20543;-61
2022/08/03 07:05:55;;;;;;;8.23;3.47;;;23.30;80.30;;;;;;5001388;28;20034;-61
2022/08/03 07:08:21;;;;;;;11.50;3.67;;;23.30;80.10;;;;;;4998340;28;20017;-62
2022/08/03 07:10:46;;;;;;;15.80;3.80;;;23.30;80.40;;;;;;4996788;28;20021;-61
2022/08/03 07:13:12;;;;;;;14.98;3.97;;;23.40;80.10;;;;;;4997536;28;20042;-59
2022/08/03 07:15:38;;;;;;;8.93;3.40;;;23.40;79.70;;;;;;4994513;28;20038;-60
2022/08/03 07:18:04;;;;;;;12.63;4.03;;;23.40;80.10;;;;;;4995502;28;20120;-61
2022/08/03 07:20:30;;;;;;;6.97;3.28;;;23.40;80.20;;;;;;4997911;28;20040;-61
2022/08/03 07:22:55;;;;;;;10.60;3.50;;;23.50;80.10;;;;;;4999112;28;20033;-61
2022/08/03 07:25:21;;;;;;;10.30;3.85;;;23.50;79.60;;;;;;4997049;28;20029;-61
2022/08/03 07:27:46;;;;;;;10.35;3.28;;;23.50;79.70;;;;;;4999611;28;20912;-62
2022/08/03 07:30:12;;;;;;;6.75;3.40;;;23.70;79.90;;;;;;4997746;28;20026;-62
2022/08/03 07:32:38;;;;;;;6.55;3.45;;;23.50;80.00;;;;;;4979798;28;20153;-61
2022/08/03 07:35:05;;;;;;;7.25;3.50;;;23.60;80.10;;;;;;4997125;28;20048;-61
2022/08/03 07:37:30;;;;;;;6.75;3.13;;;23.60;80.30;;;;;;4992290;28;20026;-61
2022/08/03 07:39:56;;;;;;;6.47;3.50;;;23.60;80.20;;;;;;4994246;28;20099;-61
2022/08/03 07:42:24;;;;;;;7.35;3.35;;;23.60;80.20;;;;;;4999077;28;20046;-61
2022/08/03 07:44:50;;;;;;;7.93;3.40;;;23.60;80.30;;;;;;4983694;28;20022;-59
2022/08/03 07:47:19;;;;;;;8.38;4.10;;;23.50;80.40;;;;;;5002236;28;20160;-59
2022/08/03 07:49:45;;;;;;;11.05;3.78;;;23.60;80.40;;;;;;4984660;28;20030;-59
2022/08/03 07:54:54;;;;;;;10.32;4.13;;;23.60;80.20;;;;;;5001205;28;20045;-59
2022/08/03 07:57:20;;;;;;;10.85;3.92;;;23.70;80.20;;;;;;5001698;28;20026;-60
2022/08/03 07:59:46;;;;;;;12.52;4.18;;;23.70;80.00;;;;;;5001024;28;20668;-59
2022/08/03 08:02:12;;;;;;;14.63;4.82;;;23.70;79.80;;;;;;4999573;28;20041;-62
2022/08/03 08:04:37;;;;;;;11.45;4.55;;;23.80;79.70;;;;;;5000320;28;20083;-59
2022/08/03 08:07:03;;;;;;;10.52;4.85;;;23.80;79.80;;;;;;4998535;28;20026;-60
2022/08/03 08:09:29;;;;;;;29.13;6.63;;;23.90;79.60;;;;;;5001730;28;20474;-59
2022/08/03 08:11:55;;;;;;;14.30;4.72;;;23.80;79.50;;;;;;4998735;28;20109;-59
2022/08/03 08:14:20;;;;;;;20.23;5.22;;;23.90;79.10;;;;;;5002764;28;20164;-60
2022/08/03 08:16:47;;;;;;;26.10;5.57;;;23.90;79.40;;;;;;5002345;28;20432;-59
2022/08/03 08:19:15;;;;;;;27.80;5.72;;;24.00;79.40;;;;;;4998840;28;20389;-59
2022/08/03 08:21:41;;;;;;;18.77;4.82;;;24.00;79.20;;;;;;4999455;28;20123;-59
2022/08/03 08:24:07;;;;;;;22.33;5.45;;;24.00;79.20;;;;;;5000041;28;20072;-59
2022/08/03 08:26:32;;;;;;;22.48;4.93;;;24.00;79.00;;;;;;5000188;28;20030;-59
2022/08/03 08:28:58;;;;;;;23.70;4.97;;;24.10;79.40;;;;;;4999213;28;20030;-59
2022/08/03 08:31:23;;;;;;;27.63;5.07;;;24.10;78.90;;;;;;4997623;28;20034;-59
2022/08/03 08:33:49;;;;;;;23.42;5.07;;;24.10;79.10;;;;;;4995789;28;20489;-59
2022/08/03 08:36:14;;;;;;;15.63;4.60;;;24.20;78.80;;;;;;5000590;28;20038;-59
2022/08/03 08:38:41;;;;;;;17.70;5.20;;;24.20;78.20;;;;;;4999568;28;20038;-59
2022/08/03 08:41:07;;;;;;;15.40;5.38;;;24.20;78.20;;;;;;4999618;28;20115;-59
2022/08/03 08:43:33;;;;;;;26.05;5.85;;;24.30;78.40;;;;;;4997465;28;20057;-59
2022/08/03 08:45:58;;;;;;;31.33;5.47;;;24.20;78.40;;;;;;4999424;28;20124;-60
2022/08/03 08:48:25;;;;;;;26.15;5.25;;;24.30;78.30;;;;;;4982221;28;20044;-59
2022/08/03 08:50:54;;;;;;;30.98;5.97;;;24.30;78.30;;;;;;4982517;28;20560;-59
2022/08/03 08:53:20;;;;;;;28.35;6.60;;;24.40;78.30;;;;;;4998652;28;20108;-59
2022/08/03 08:55:46;;;;;;;23.23;5.55;;;24.40;78.10;;;;;;4995883;28;20531;-60
2022/08/03 08:58:11;;;;;;;49.55;8.23;;;24.50;78.00;;;;;;4998681;28;20057;-60
2022/08/03 09:00:37;;;;;;;38.75;8.38;;;24.50;77.70;;;;;;5013687;28;20033;-59
2022/08/03 09:03:02;;;;;;;25.30;6.25;;;24.50;77.50;;;;;;5012059;28;20044;-59
2022/08/03 09:05:31;;;;;;;38.42;6.80;;;24.60;77.30;;;;;;4996055;28;20052;-61
2022/08/03 09:07:57;;;;;;;34.65;6.57;;;24.60;77.20;;;;;;5011677;28;20025;-59
2022/08/03 09:10:23;;;;;;;42.42;8.88;;;24.70;77.20;;;;;;4996229;28;20041;-59
2022/08/03 09:12:50;;;;;;;36.30;7.22;;;24.70;76.80;;;;;;4998492;28;20113;-60
2022/08/03 09:15:17;;;;;;;56.72;11.30;;;24.70;76.70;;;;;;4993925;28;20022;-59
2022/08/03 09:17:42;;;;;;;49.75;11.10;;;24.90;76.60;;;;;;4997125;28;20030;-59
2022/08/03 09:20:09;;;;;;;64.45;14.77;;;24.80;76.50;;;;;;4981689;28;20088;-59
2022/08/03 09:22:34;;;;;;;53.72;12.80;;;24.80;76.30;;;;;;4995414;28;20104;-62
2022/08/03 09:25:02;;;;;;;50.35;12.38;;;24.90;76.00;;;;;;4991728;28;20042;-60
2022/08/03 09:27:28;;;;;;;47.45;10.30;;;24.90;75.90;;;;;;4996761;28;20034;-59
2022/08/03 09:29:53;;;;;;;46.47;11.73;;;25.00;75.70;;;;;;4994604;28;20021;-61
2022/08/03 09:32:20;;;;;;;49.33;9.77;;;25.00;75.60;;;;;;4995464;28;20036;-59
2022/08/03 09:34:49;;;;;;;58.20;11.15;;;25.10;75.60;;;;;;4996602;28;20353;-59
2022/08/03 09:37:16;;;;;;;59.33;13.02;;;25.10;75.20;;;;;;4996688;28;20045;-59
2022/08/03 09:39:42;;;;;;;81.25;13.63;;;25.20;75.00;;;;;;4998666;28;20260;-59
2022/08/03 09:42:12;;;;;;;57.60;10.82;;;25.20;74.60;;;;;;4996998;28;20030;-62
2022/08/03 09:44:41;;;;;;;62.15;11.93;;;25.20;74.60;;;;;;4964842;28;20482;-59
2022/08/03 09:47:06;;;;;;;53.28;10.90;;;25.30;74.80;;;;;;4998967;28;20045;-59
2022/08/03 09:49:32;;;;;;;51.58;11.00;;;25.40;74.60;;;;;;4998124;28;20022;-59
2022/08/03 09:52:00;;;;;;;47.60;9.02;;;25.40;74.40;;;;;;4999409;28;20080;-59
2022/08/03 09:54:26;;;;;;;60.90;9.68;;;25.40;74.40;;;;;;4997862;28;20034;-59
2022/08/03 09:56:52;;;;;;;46.22;9.55;;;25.50;74.20;;;;;;4997108;28;20088;-59
2022/08/03 09:59:30;;;;;;;45.53;8.88;;;25.60;73.70;;;;;;4990954;28;20030;-59
2022/08/03 10:01:57;;;;;;;41.58;8.60;;;25.60;73.30;;;;;;4991215;28;20045;-59
2022/08/03 10:04:23;;;;;;;54.78;9.07;;;25.60;73.10;;;;;;5011632;28;20456;-59
2022/08/03 10:07:02;;;;;;;52.50;8.65;;;25.70;73.00;;;;;;4994370;28;20063;-59
2022/08/03 10:09:27;;;;;;;45.85;8.77;;;25.70;72.70;;;;;;4999535;28;20816;-60
2022/08/03 10:11:53;;;;;;;43.85;8.75;;;25.80;72.70;;;;;;4968014;28;20167;-59
2022/08/03 10:14:18;;;;;;;66.72;10.38;;;25.80;72.30;;;;;;4998867;28;20036;-60
2022/08/03 10:16:45;;;;;;;70.15;11.00;;;25.90;72.10;;;;;;4997635;28;20467;-59
2022/08/03 10:19:10;;;;;;;58.80;9.20;;;25.90;71.80;;;;;;4998162;28;20698;-61
2022/08/03 10:21:41;;;;;;;59.13;9.20;;;26.00;71.90;;;;;;4998386;28;20168;-59
2022/08/03 10:24:07;;;;;;;75.97;11.20;;;26.00;71.50;;;;;;4998116;28;20163;-59
2022/08/03 10:26:36;;;;;;;51.22;9.60;;;26.00;71.30;;;;;;4997502;28;20040;-60
2022/08/03 10:29:06;;;;;;;73.78;10.18;;;26.10;71.00;;;;;;4999115;28;21281;-59
2022/08/03 10:31:38;;;;;;;79.22;10.88;;;26.10;70.70;;;;;;4995471;28;20397;-61
2022/08/03 10:34:05;;;;;;;95.20;11.95;;;26.20;70.60;;;;;;4998175;28;20026;-60
2022/08/03 10:36:31;;;;;;;62.53;10.75;;;26.20;70.30;;;;;;4999426;28;20048;-59
2022/08/03 10:38:56;;;;;;;70.90;10.82;;;26.30;70.30;;;;;;4979864;28;20037;-59
2022/08/03 10:41:24;;;;;;;79.20;11.00;;;26.30;70.10;;;;;;4978923;28;20482;-59
2022/08/03 10:43:52;;;;;;;127.50;16.65;;;26.40;70.00;;;;;;4998111;28;20101;-62
2022/08/03 10:46:18;;;;;;;62.30;9.90;;;26.40;69.80;;;;;;5000394;28;20674;-59
2022/08/03 10:48:44;;;;;;;50.15;8.90;;;26.50;69.50;;;;;;4996645;28;20116;-60
2022/08/03 10:51:10;;;;;;;60.30;8.55;;;26.50;68.90;;;;;;4995731;28;20164;-61
2022/08/03 10:53:41;;;;;;;50.47;7.88;;;26.60;68.60;;;;;;4996324;28;20030;-62
2022/08/03 10:59:10;;;;;;;61.65;8.43;;;26.50;68.10;;;;;;4988059;28;20137;-61
2022/08/03 11:01:53;;;;;;;61.30;8.63;;;26.80;67.90;;;;;;5007350;28;20470;-60
2022/08/03 11:04:19;;;;;;;57.45;7.80;;;26.80;67.70;;;;;;4973397;28;20049;-59
2022/08/03 11:06:45;;;;;;;47.25;7.40;;;26.90;67.70;;;;;;4994378;28;20053;-60
2022/08/03 11:09:15;;;;;;;42.13;6.60;;;26.90;67.30;;;;;;4993841;28;20029;-62
2022/08/03 11:11:42;;;;;;;25.45;5.88;;;26.90;67.00;;;;;;4974194;28;20030;-59
2022/08/03 11:14:12;;;;;;;37.22;6.07;;;27.00;66.80;;;;;;5010195;28;20053;-61
2022/08/03 11:16:39;;;;;;;34.10;6.65;;;27.10;66.40;;;;;;4998645;28;20033;-60
2022/08/03 11:19:10;;;;;;;23.75;5.45;;;27.20;66.10;;;;;;4991334;28;20029;-61
2022/08/03 11:21:51;;;;;;;28.13;5.25;;;27.30;65.60;;;;;;4978514;28;20107;-60
2022/08/03 11:24:35;;;;;;;26.25;5.40;;;27.40;65.20;;;;;;4994222;28;20034;-62
2022/08/03 11:27:21;;;;;;;24.88;4.88;;;27.40;65.00;;;;;;4994538;28;20042;-60
2022/08/03 11:29:58;;;;;;;19.33;4.57;;;27.50;64.90;;;;;;4994269;28;20104;-59
2022/08/03 11:32:36;;;;;;;26.02;5.13;;;27.60;64.70;;;;;;4993999;28;20030;-59
2022/08/03 11:35:13;;;;;;;24.98;4.25;;;27.80;64.50;;;;;;4994149;28;20046;-60
2022/08/03 11:38:00;;;;;;;20.77;4.10;;;27.80;64.00;;;;;;5009421;28;20385;-60
2022/08/03 11:40:43;;;;;;;19.15;4.30;;;28.00;63.70;;;;;;4997668;28;20133;-60
2022/08/03 11:43:32;;;;;;;16.60;4.53;;;28.10;63.50;;;;;;4995271;28;20725;-59
2022/08/03 11:46:05;;;;;;;22.45;4.38;;;28.20;63.10;;;;;;4999234;28;20050;-60
2022/08/03 11:48:43;;;;;;;16.63;4.13;;;28.30;62.60;;;;;;4990546;28;20040;-59
2022/08/03 11:51:20;;;;;;;13.65;3.47;;;28.40;62.30;;;;;;4981826;28;20234;-60
2022/08/03 11:53:46;;;;;;;10.27;3.25;;;28.50;61.90;;;;;;4992671;28;20150;-60
2022/08/03 11:56:12;;;;;;;7.57;3.30;;;28.60;61.40;;;;;;4992859;28;20125;-59
2022/08/03 11:58:42;;;;;;;8.07;3.00;;;28.70;61.30;;;;;;4993918;28;20463;-60
2022/08/03 12:01:10;;;;;;;12.18;2.90;;;28.80;61.10;;;;;;5008123;28;20041;-60
2022/08/03 12:03:35;;;;;;;8.35;3.10;;;28.80;60.80;;;;;;4991172;28;20030;-60
2022/08/03 12:06:01;;;;;;;8.75;3.10;;;29.00;60.70;;;;;;4973521;28;20038;-60
2022/08/03 12:08:27;;;;;;;8.07;3.00;;;29.00;60.60;;;;;;5025775;28;20021;-59
2022/08/03 12:10:54;;;;;;;4.57;2.85;;;29.10;60.30;;;;;;4997737;28;20045;-60
2022/08/03 12:13:20;;;;;;;7.43;2.70;;;29.20;60.10;;;;;;4989273;28;20038;-60
2022/08/03 12:15:56;;;;;;;9.00;3.05;;;29.30;60.00;;;;;;5005737;28;20030;-60
2022/08/03 12:18:22;;;;;;;3.55;2.50;;;29.30;59.80;;;;;;4994127;28;20037;-60
2022/08/03 12:20:51;;;;;;;12.40;3.15;;;29.40;59.40;;;;;;4990464;28;20038;-60
2022/08/03 12:23:17;;;;;;;15.45;3.05;;;29.50;59.60;;;;;;4979385;28;20417;-61
2022/08/03 12:25:43;;;;;;;16.88;3.28;;;29.50;59.80;;;;;;4991490;28;20269;-61
2022/08/03 12:28:18;;;;;;;19.73;3.88;;;29.60;59.20;;;;;;4994122;28;20018;-60
2022/08/03 12:30:46;;;;;;;12.95;3.78;;;29.70;58.90;;;;;;4997638;28;20113;-60
2022/08/03 12:33:12;;;;;;;23.40;4.00;;;29.80;58.60;;;;;;4996313;28;20388;-61
2022/08/03 12:35:38;;;;;;;14.52;3.15;;;29.90;58.30;;;;;;4996871;28;21585;-60
2022/08/03 12:38:03;;;;;;;28.23;3.95;;;29.90;58.50;;;;;;5000287;28;20041;-60
2022/08/03 12:40:29;;;;;;;7.97;3.03;;;30.00;58.00;;;;;;5003733;28;20048;-60
2022/08/03 12:42:54;;;;;;;12.27;3.08;;;30.10;59.20;;;;;;4996484;28;21206;-60
2022/08/03 12:45:25;;;;;;;16.13;3.00;;;30.20;57.80;;;;;;4996003;28;20080;-60
2022/08/03 12:47:58;;;;;;;15.63;3.45;;;30.40;57.50;;;;;;4997178;28;20095;-60
2022/08/03 12:50:25;;;;;;;13.55;3.70;;;30.50;57.10;;;;;;4980992;28;20100;-60
2022/08/03 12:52:50;;;;;;;21.33;3.67;;;30.50;56.70;;;;;;4995587;28;20033;-61
2022/08/03 12:55:19;;;;;;;12.77;3.70;;;30.60;56.70;;;;;;4997108;28;20541;-60